Time;durP1;ratioP1;P1;durP2;ratioP2;P2;SDS_P1;SDS_P2;PMS_P1;PMS_P2;Temp;Humidity;BMP_temperature;BMP_pressure;BME280_temperature;BME280_humidity;BME280_pressure;Samples;Min_cycle;Max_cycle;Signal;HPM_P1;HPM_P2
2021/09/20 00:00:17;;;;;;;40.40;31.67;;;;;;;9.57;100.00;98964.31;2051049;29;20273;-74
2021/09/20 00:01:17;;;;;;;39.50;31.77;;;;;;;9.54;100.00;98967.56;2050255;29;20213;-74
2021/09/20 00:02:19;;;;;;;40.77;30.30;;;;;;;9.57;100.00;98969.66;2050428;29;20237;-74
2021/09/20 00:03:19;;;;;;;40.55;30.80;;;;;;;9.57;100.00;98963.53;2050214;29;20202;-74
2021/09/20 00:04:21;;;;;;;39.93;30.30;;;;;;;9.55;100.00;98971.78;2050207;29;20206;-74
2021/09/20 00:05:22;;;;;;;36.05;30.52;;;;;;;9.54;100.00;98967.56;2050489;29;20217;-75
2021/09/20 00:06:26;;;;;;;39.17;29.90;;;;;;;9.53;100.00;98965.97;2051081;29;20190;-74
2021/09/20 00:07:29;;;;;;;38.60;30.27;;;;;;;9.54;100.00;98969.44;2050912;28;20198;-74
2021/09/20 00:08:30;;;;;;;40.47;30.67;;;;;;;9.52;100.00;98971.59;2050142;29;20209;-75
2021/09/20 00:09:31;;;;;;;41.90;32.15;;;;;;;9.53;100.00;98973.19;2050423;29;20187;-75
2021/09/20 00:10:32;;;;;;;40.47;30.87;;;;;;;9.51;100.00;98973.47;2050179;29;20271;-75
2021/09/20 00:11:33;;;;;;;46.22;32.20;;;;;;;9.50;100.00;98974.56;2050292;29;20206;-74
2021/09/20 00:12:36;;;;;;;40.63;32.43;;;;;;;9.46;100.00;98968.22;2050183;29;20198;-75
2021/09/20 00:13:37;;;;;;;37.15;31.70;;;;;;;9.49;100.00;98975.63;2050168;29;20297;-75
2021/09/20 00:14:39;;;;;;;41.65;30.85;;;;;;;9.49;100.00;98972.97;2042309;29;20688;-74
2021/09/20 00:15:40;;;;;;;43.40;31.65;;;;;;;9.49;100.00;98969.53;2050472;29;20230;-74
2021/09/20 00:16:41;;;;;;;42.13;31.93;;;;;;;9.49;100.00;98975.63;2050965;28;20190;-74
2021/09/20 00:17:42;;;;;;;40.83;30.63;;;;;;;9.50;100.00;98976.44;2050881;29;20318;-74
2021/09/20 00:18:44;;;;;;;43.43;31.13;;;;;;;9.51;100.00;98970.81;2050844;29;20187;-75
2021/09/20 00:19:44;;;;;;;40.55;30.55;;;;;;;9.53;100.00;98975.84;2050940;29;20214;-75
2021/09/20 00:20:47;;;;;;;38.83;30.90;;;;;;;9.52;100.00;98971.59;2050805;29;20193;-74
2021/09/20 00:21:47;;;;;;;39.60;31.38;;;;;;;9.52;100.00;98972.38;2050980;29;20547;-74
2021/09/20 00:22:52;;;;;;;44.50;31.50;;;;;;;9.54;100.00;98972.88;2050868;29;20190;-75
2021/09/20 00:23:53;;;;;;;44.33;30.30;;;;;;;9.54;100.00;98978.19;2050741;29;20198;-74
2021/09/20 00:24:57;;;;;;;42.43;31.40;;;;;;;9.58;100.00;98979.22;2050903;29;20233;-74
2021/09/20 00:25:58;;;;;;;41.13;30.75;;;;;;;9.57;100.00;98974.97;2050944;29;20601;-75
2021/09/20 00:27:01;;;;;;;38.65;31.48;;;;;;;9.59;100.00;98974.69;2049893;29;20216;-75
2021/09/20 00:28:02;;;;;;;42.75;29.98;;;;;;;9.58;100.00;98975.75;2050128;29;20289;-75
2021/09/20 00:29:04;;;;;;;37.73;30.20;;;;;;;9.55;100.00;98966.47;2050083;29;20279;-74
2021/09/20 00:30:06;;;;;;;40.92;30.60;;;;;;;9.56;100.00;98970.75;2042129;29;20195;-74
2021/09/20 00:31:08;;;;;;;39.35;31.23;;;;;;;9.54;100.00;98969.44;2050285;29;20592;-75
2021/09/20 00:32:08;;;;;;;43.08;31.73;;;;;;;9.53;100.00;98968.63;2050794;29;20278;-75
2021/09/20 00:33:11;;;;;;;39.80;30.80;;;;;;;9.54;100.00;98974.75;2049665;29;20217;-75
2021/09/20 00:34:12;;;;;;;44.30;31.52;;;;;;;9.51;100.00;98970.81;2050148;29;20285;-75
2021/09/20 00:35:14;;;;;;;45.95;32.08;;;;;;;9.51;100.00;98973.47;2050003;29;20277;-75
2021/09/20 00:36:16;;;;;;;45.22;31.20;;;;;;;9.50;100.00;98976.44;2042103;29;20207;-75
2021/09/20 00:37:17;;;;;;;41.70;30.05;;;;;;;9.55;100.00;98971.78;2050018;29;20256;-75
2021/09/20 00:38:20;;;;;;;36.92;29.40;;;;;;;9.61;100.00;98975.19;2041856;29;20421;-74
2021/09/20 00:39:21;;;;;;;40.88;30.67;;;;;;;9.58;100.00;98976.56;2049999;29;20198;-75
2021/09/20 00:40:24;;;;;;;39.47;30.67;;;;;;;9.54;100.00;98975.53;2050871;28;20281;-74
2021/09/20 00:41:25;;;;;;;41.50;29.88;;;;;;;9.59;100.00;98972.03;2050634;29;20669;-74
2021/09/20 00:42:27;;;;;;;39.60;29.37;;;;;;;9.56;100.00;98973.41;2050860;28;20591;-74
2021/09/20 00:43:27;;;;;;;35.15;29.67;;;;;;;9.55;100.00;98979.00;2050699;29;20198;-74
2021/09/20 00:44:29;;;;;;;39.70;31.33;;;;;;;9.53;100.00;98963.31;2050828;29;20187;-75
2021/09/20 00:45:30;;;;;;;42.25;30.27;;;;;;;9.58;100.00;98968.56;2050779;29;20292;-75
2021/09/20 00:46:31;;;;;;;42.73;31.03;;;;;;;9.59;100.00;98974.69;2050623;28;20202;-75
2021/09/20 00:47:32;;;;;;;40.42;30.35;;;;;;;9.57;100.00;98974.97;2050579;29;20197;-75
2021/09/20 00:48:35;;;;;;;43.00;31.47;;;;;;;9.52;100.00;98961.72;2050765;29;20194;-73
2021/09/20 00:49:36;;;;;;;42.08;31.25;;;;;;;9.51;100.00;98968.16;2050604;28;20281;-75
2021/09/20 00:50:38;;;;;;;38.53;29.70;;;;;;;9.48;100.00;98970.59;2050580;29;20197;-75
2021/09/20 00:51:39;;;;;;;37.83;30.80;;;;;;;9.49;100.00;98967.66;2050663;29;20190;-75
2021/09/20 00:52:40;;;;;;;36.33;29.13;;;;;;;9.48;100.00;98970.59;2049115;28;20215;-75
2021/09/20 00:53:42;;;;;;;43.33;30.35;;;;;;;9.48;100.00;98968.72;2049956;29;20191;-75
2021/09/20 00:54:44;;;;;;;34.83;28.98;;;;;;;9.44;100.00;98964.25;2050520;29;20183;-75
2021/09/20 00:55:45;;;;;;;37.60;30.85;;;;;;;9.43;100.00;98963.47;2050604;29;20222;-74
2021/09/20 00:56:47;;;;;;;38.30;29.97;;;;;;;9.44;100.00;98970.38;2049880;29;20202;-75
2021/09/20 00:57:48;;;;;;;33.95;28.00;;;;;;;9.41;100.00;98962.19;2049951;29;20643;-74
2021/09/20 00:58:50;;;;;;;34.13;25.83;;;;;;;9.45;100.00;98957.84;2051084;28;20214;-75
2021/09/20 00:59:50;;;;;;;34.50;28.33;;;;;;;9.52;100.00;98964.41;2049802;29;20221;-74
2021/09/20 01:00:53;;;;;;;33.05;28.15;;;;;;;9.50;100.00;98963.13;2041783;29;20207;-75
2021/09/20 01:01:56;;;;;;;38.15;29.10;;;;;;;9.49;100.00;98961.53;2050082;28;20209;-74
2021/09/20 01:02:58;;;;;;;36.15;28.85;;;;;;;9.48;100.00;98965.28;2058513;28;20190;-75
2021/09/20 01:03:59;;;;;;;39.70;28.98;;;;;;;9.49;100.00;98962.31;2049764;29;20198;-75
2021/09/20 01:05:01;;;;;;;37.33;29.87;;;;;;;9.46;100.00;98960.22;2049791;29;20233;-75
2021/09/20 01:06:01;;;;;;;36.80;29.08;;;;;;;9.48;100.00;98968.72;2050148;28;20198;-75
2021/09/20 01:07:03;;;;;;;38.10;29.57;;;;;;;9.52;100.00;98972.38;2058417;28;20191;-75
2021/09/20 01:08:05;;;;;;;34.97;29.45;;;;;;;9.50;100.00;98969.22;2058602;28;20240;-75
2021/09/20 01:09:09;;;;;;;42.38;29.20;;;;;;;9.51;100.00;98967.34;2058422;28;20272;-75
2021/09/20 01:10:11;;;;;;;32.17;28.60;;;;;;;9.51;100.00;98970.03;2049709;29;20194;-75
2021/09/20 01:11:12;;;;;;;32.55;28.67;;;;;;;9.51;100.00;98970.81;2049852;28;20195;-75
2021/09/20 01:12:13;;;;;;;35.78;28.02;;;;;;;9.52;100.00;98967.06;2049722;29;20665;-75
2021/09/20 01:13:15;;;;;;;35.70;28.90;;;;;;;9.52;100.00;98972.38;2049895;29;20306;-75
2021/09/20 01:14:16;;;;;;;37.05;28.42;;;;;;;9.54;100.00;98975.53;2058467;28;20197;-75
2021/09/20 01:15:17;;;;;;;36.13;29.10;;;;;;;9.53;100.00;98967.84;2058413;28;20675;-75
2021/09/20 01:16:20;;;;;;;34.53;29.02;;;;;;;9.50;100.00;98969.22;2058374;28;20285;-75
2021/09/20 01:17:22;;;;;;;34.95;27.23;;;;;;;9.52;100.00;98972.38;2058313;28;20675;-75
2021/09/20 01:18:25;;;;;;;33.53;28.33;;;;;;;9.52;100.00;98977.72;2058563;28;20228;-74
2021/09/20 01:19:27;;;;;;;35.88;28.20;;;;;;;9.51;100.00;98980.66;2058400;28;20194;-75
2021/09/20 01:20:28;;;;;;;32.35;27.42;;;;;;;9.55;100.00;98977.13;2049598;29;20321;-75
2021/09/20 01:21:30;;;;;;;34.63;28.17;;;;;;;9.56;100.00;98983.25;2041776;29;20202;-74
2021/09/20 01:22:33;;;;;;;33.25;27.73;;;;;;;9.58;100.00;98978.44;2050007;29;20202;-75
2021/09/20 01:23:38;;;;;;;29.98;26.73;;;;;;;9.59;100.00;98980.78;2049246;29;20202;-75
2021/09/20 01:24:39;;;;;;;29.20;25.27;;;;;;;9.59;100.00;98975.47;2042074;29;20692;-75
2021/09/20 01:25:42;;;;;;;27.97;24.93;;;;;;;9.58;100.00;98975.75;2048810;29;20661;-75
2021/09/20 01:26:43;;;;;;;28.95;25.75;;;;;;;9.57;100.00;98974.97;2041875;29;20202;-75
2021/09/20 01:27:44;;;;;;;30.53;25.37;;;;;;;9.58;100.00;98975.75;2049961;29;20186;-75
2021/09/20 01:28:45;;;;;;;27.30;24.42;;;;;;;9.56;100.00;98970.75;2058257;28;20765;-74
2021/09/20 01:29:47;;;;;;;26.30;23.23;;;;;;;9.57;100.00;98967.00;2049321;29;20587;-75
2021/09/20 01:30:50;;;;;;;26.77;23.58;;;;;;;9.62;100.00;98972.22;2049852;28;20190;-75
2021/09/20 01:31:50;;;;;;;26.38;23.73;;;;;;;9.65;100.00;98965.53;2058403;28;20221;-75
2021/09/20 01:32:52;;;;;;;26.00;23.40;;;;;;;9.62;100.00;98964.22;2058251;28;20648;-74
2021/09/20 01:33:52;;;;;;;27.70;24.73;;;;;;;9.67;100.00;98965.25;2058253;28;20266;-75
2021/09/20 01:34:54;;;;;;;26.97;23.83;;;;;;;9.69;100.00;98966.53;2058193;28;20192;-75
2021/09/20 01:35:55;;;;;;;25.55;23.10;;;;;;;9.81;100.00;98969.50;2058203;28;20266;-74
2021/09/20 01:36:56;;;;;;;26.27;23.83;;;;;;;9.77;100.00;98959.72;2058179;28;20668;-74
2021/09/20 01:37:57;;;;;;;25.52;23.23;;;;;;;9.85;100.00;98959.06;2058214;28;20197;-75
2021/09/20 01:39:00;;;;;;;26.30;23.80;;;;;;;9.79;100.00;98955.69;2058398;28;20216;-75
2021/09/20 01:40:01;;;;;;;24.75;22.40;;;;;;;9.80;100.00;98956.47;2058080;28;20667;-75
2021/09/20 01:41:03;;;;;;;25.30;22.80;;;;;;;9.84;100.00;98960.94;2058230;28;20198;-74
2021/09/20 01:42:04;;;;;;;24.00;21.88;;;;;;;9.83;100.00;98943.38;2058378;28;20200;-75
2021/09/20 01:43:08;;;;;;;25.75;23.40;;;;;;;9.82;100.00;98959.66;2058203;28;20196;-75
2021/09/20 01:44:09;;;;;;;24.70;22.30;;;;;;;9.77;100.00;98947.19;2049481;29;20227;-75
2021/09/20 01:45:12;;;;;;;24.60;22.25;;;;;;;9.77;100.00;98957.06;2049691;28;20190;-75
2021/09/20 01:46:12;;;;;;;24.20;22.20;;;;;;;9.76;100.00;98958.16;2049493;29;20244;-75
2021/09/20 01:47:14;;;;;;;23.97;21.77;;;;;;;9.75;100.00;98953.91;2049487;29;20243;-75
2021/09/20 01:48:17;;;;;;;25.15;22.88;;;;;;;9.74;100.00;98955.00;2049609;28;20190;-75
2021/09/20 01:49:18;;;;;;;24.05;21.75;;;;;;;9.73;100.00;98956.06;2049027;29;20213;-74
2021/09/20 01:50:22;;;;;;;24.33;21.97;;;;;;;9.71;100.00;98951.03;2049547;29;20209;-74
2021/09/20 01:51:26;;;;;;;24.83;22.63;;;;;;;9.69;100.00;98953.19;2049825;28;20566;-75
2021/09/20 01:52:28;;;;;;;23.73;21.63;;;;;;;9.66;100.00;98947.69;2049976;28;20186;-74
2021/09/20 01:53:29;;;;;;;25.27;22.90;;;;;;;9.73;100.00;98950.72;2058094;28;20260;-74
2021/09/20 01:54:32;;;;;;;23.77;21.70;;;;;;;9.70;100.00;98946.78;2058288;28;20193;-75
2021/09/20 01:55:33;;;;;;;24.00;21.80;;;;;;;9.70;100.00;98951.31;2058074;28;20225;-74
2021/09/20 01:56:34;;;;;;;24.70;22.37;;;;;;;9.67;100.00;98949.25;2058049;28;20193;-75
2021/09/20 01:57:36;;;;;;;24.58;22.20;;;;;;;9.66;100.00;98953.78;2058037;28;20247;-74
2021/09/20 01:58:38;;;;;;;24.27;21.75;;;;;;;9.61;100.00;98949.31;2058002;28;20206;-75
2021/09/20 01:59:39;;;;;;;24.17;22.08;;;;;;;9.60;100.00;98950.41;2049284;29;20605;-74
2021/09/20 02:00:43;;;;;;;22.63;20.73;;;;;;;9.61;100.00;98949.31;2049546;29;20628;-75
2021/09/20 02:01:44;;;;;;;24.27;21.88;;;;;;;9.64;100.00;98953.28;2058013;28;20251;-75
2021/09/20 02:02:45;;;;;;;23.77;21.60;;;;;;;9.62;100.00;98950.91;2049335;29;20257;-74
2021/09/20 02:03:46;;;;;;;23.67;21.52;;;;;;;9.61;100.00;98952.00;2049556;28;20238;-75
2021/09/20 02:04:48;;;;;;;24.87;22.47;;;;;;;9.57;100.00;98951.00;2057402;28;20193;-75
2021/09/20 02:05:49;;;;;;;24.02;21.77;;;;;;;9.56;100.00;98949.44;2057947;28;20664;-75
2021/09/20 02:06:51;;;;;;;23.87;21.77;;;;;;;9.58;100.00;98952.59;2058011;28;20563;-75
2021/09/20 02:07:51;;;;;;;23.40;21.40;;;;;;;9.55;100.00;98953.16;2057962;28;20280;-74
2021/09/20 02:08:56;;;;;;;23.67;21.47;;;;;;;9.54;100.00;98948.91;2058022;28;20182;-75
2021/09/20 02:09:58;;;;;;;24.52;22.02;;;;;;;9.52;100.00;98960.94;2057966;28;20670;-75
2021/09/20 02:11:00;;;;;;;24.00;21.63;;;;;;;9.51;100.00;98949.50;2057972;28;20189;-75
2021/09/20 02:12:03;;;;;;;24.08;22.08;;;;;;;9.51;100.00;98952.16;2057971;28;20280;-75
2021/09/20 02:13:05;;;;;;;24.45;22.13;;;;;;;9.48;100.00;98957.28;2049340;29;20619;-74
2021/09/20 02:14:06;;;;;;;24.27;22.08;;;;;;;9.52;100.00;98952.94;2049553;28;20229;-75
2021/09/20 02:15:09;;;;;;;23.83;21.63;;;;;;;9.51;100.00;98957.50;2057969;28;20189;-75
2021/09/20 02:16:10;;;;;;;23.88;21.63;;;;;;;9.50;100.00;98952.47;2057964;28;20560;-75
2021/09/20 02:17:11;;;;;;;23.83;21.58;;;;;;;9.47;100.00;98953.84;2057885;28;20216;-75
2021/09/20 02:18:15;;;;;;;23.55;21.55;;;;;;;9.50;100.00;98953.25;2049315;29;20206;-75
2021/09/20 02:19:16;;;;;;;24.58;22.48;;;;;;;9.49;100.00;98957.00;2049714;28;20194;-75
2021/09/20 02:20:18;;;;;;;25.13;22.83;;;;;;;9.48;100.00;98954.63;2057980;28;20651;-75
2021/09/20 02:21:18;;;;;;;23.70;21.67;;;;;;;9.46;100.00;98954.91;2057920;28;20189;-75
2021/09/20 02:22:20;;;;;;;24.57;22.07;;;;;;;9.45;100.00;98955.19;2058158;28;20193;-75
2021/09/20 02:23:20;;;;;;;24.90;22.48;;;;;;;9.44;100.00;98954.41;2058112;28;20280;-75
2021/09/20 02:24:22;;;;;;;24.87;22.47;;;;;;;9.45;100.00;98953.31;2057912;28;20185;-75
2021/09/20 02:25:26;;;;;;;25.13;22.63;;;;;;;9.43;100.00;98952.81;2058017;28;20320;-75
2021/09/20 02:26:27;;;;;;;24.42;22.08;;;;;;;9.44;100.00;98954.41;2058028;28;20193;-74
2021/09/20 02:27:29;;;;;;;24.17;21.88;;;;;;;9.45;100.00;98960.53;2057931;28;20694;-74
2021/09/20 02:28:30;;;;;;;24.65;22.35;;;;;;;9.41;100.00;98960.31;2057883;28;20656;-74
2021/09/20 02:29:32;;;;;;;25.10;22.52;;;;;;;9.41;100.00;98959.53;2057908;28;20190;-74
2021/09/20 02:30:32;;;;;;;25.17;22.42;;;;;;;9.41;100.00;98956.88;2057850;28;20201;-75
2021/09/20 02:31:34;;;;;;;25.07;22.57;;;;;;;9.40;100.00;98957.94;2058074;28;20186;-75
2021/09/20 02:32:37;;;;;;;24.95;22.65;;;;;;;9.40;100.00;98961.41;2049243;29;20577;-75
2021/09/20 02:33:39;;;;;;;25.45;22.90;;;;;;;9.39;100.00;98957.16;2049621;28;20186;-75
2021/09/20 02:34:39;;;;;;;24.65;22.10;;;;;;;9.39;100.00;98959.81;2057854;28;20285;-74
2021/09/20 02:35:41;;;;;;;25.37;22.97;;;;;;;9.38;100.00;98960.88;2057881;28;20743;-75
2021/09/20 02:36:42;;;;;;;25.73;23.33;;;;;;;9.37;100.00;98959.31;2049215;29;20290;-75
2021/09/20 02:37:43;;;;;;;25.70;23.27;;;;;;;9.35;100.00;98956.16;2049492;29;20198;-74
2021/09/20 02:38:46;;;;;;;26.67;23.73;;;;;;;9.36;100.00;98963.03;2049137;29;20803;-74
2021/09/20 02:39:48;;;;;;;26.98;23.85;;;;;;;9.34;100.00;98963.34;2041507;29;20257;-75
2021/09/20 02:40:50;;;;;;;26.85;24.00;;;;;;;9.35;100.00;98958.81;2049299;28;20206;-75
2021/09/20 02:41:51;;;;;;;25.95;23.35;;;;;;;9.35;100.00;98964.13;2057898;28;20196;-75
2021/09/20 02:42:53;;;;;;;26.67;24.05;;;;;;;9.37;100.00;98961.97;2057821;28;20189;-75
2021/09/20 02:43:57;;;;;;;28.17;24.27;;;;;;;9.40;100.00;98958.75;2057932;28;20182;-75
2021/09/20 02:44:58;;;;;;;25.67;23.30;;;;;;;9.43;100.00;98963.47;2049229;29;20195;-75
2021/09/20 02:46:00;;;;;;;26.23;23.47;;;;;;;9.41;100.00;98965.66;2049217;29;20190;-75
2021/09/20 02:47:01;;;;;;;26.92;24.27;;;;;;;9.39;100.00;98961.69;2049362;28;20205;-74
2021/09/20 02:48:02;;;;;;;27.80;24.93;;;;;;;9.39;100.00;98954.50;2049199;29;20289;-75
2021/09/20 02:49:03;;;;;;;26.50;24.08;;;;;;;9.38;100.00;98960.88;2049164;29;20300;-74
2021/09/20 02:50:05;;;;;;;30.27;25.00;;;;;;;9.40;100.00;98965.94;2049423;29;20657;-75
2021/09/20 02:51:06;;;;;;;28.02;25.23;;;;;;;9.38;100.00;98958.22;2049180;29;20285;-75
2021/09/20 02:52:07;;;;;;;28.00;25.10;;;;;;;9.37;100.00;98958.50;2049258;29;20245;-74
2021/09/20 02:53:10;;;;;;;28.08;25.33;;;;;;;9.36;100.00;98965.72;2057775;28;20691;-74
2021/09/20 02:54:14;;;;;;;28.35;25.55;;;;;;;9.32;100.00;98959.41;2057814;28;20616;-75
2021/09/20 02:55:15;;;;;;;27.45;24.70;;;;;;;9.37;100.00;98964.63;2057878;28;20264;-74
2021/09/20 02:56:18;;;;;;;27.20;24.47;;;;;;;9.39;100.00;98967.81;2057854;28;20190;-74
2021/09/20 02:57:19;;;;;;;27.85;25.15;;;;;;;9.37;100.00;98955.84;2057891;28;20225;-75
2021/09/20 02:58:21;;;;;;;28.37;25.53;;;;;;;9.35;100.00;98962.25;2057938;28;20209;-74
2021/09/20 02:59:21;;;;;;;28.73;25.50;;;;;;;9.33;100.00;98963.63;2048558;29;20230;-75
2021/09/20 03:00:24;;;;;;;28.87;25.90;;;;;;;9.30;100.00;98964.22;2041148;29;20210;-74
2021/09/20 03:01:25;;;;;;;28.52;25.70;;;;;;;9.29;100.00;98965.28;2049544;28;20206;-74
2021/09/20 03:02:27;;;;;;;27.87;25.07;;;;;;;9.29;100.00;98959.97;2057738;28;20272;-75
2021/09/20 03:03:27;;;;;;;28.42;25.00;;;;;;;9.27;100.00;98964.78;2049080;29;20937;-75
2021/09/20 03:04:29;;;;;;;28.80;25.83;;;;;;;9.26;100.00;98965.88;2049429;29;20194;-74
2021/09/20 03:05:30;;;;;;;27.52;24.77;;;;;;;9.30;100.00;98969.56;2048764;29;20305;-74
2021/09/20 03:06:31;;;;;;;29.17;26.03;;;;;;;9.26;100.00;98969.31;2049207;29;20681;-75
2021/09/20 03:07:32;;;;;;;28.67;25.70;;;;;;;9.30;100.00;98970.34;2057923;28;20233;-75
2021/09/20 03:08:36;;;;;;;33.33;26.33;;;;;;;9.26;100.00;98960.53;2049200;29;20240;-75
2021/09/20 03:09:37;;;;;;;28.63;25.15;;;;;;;9.22;100.00;98968.34;2049284;29;20221;-75
2021/09/20 03:10:38;;;;;;;31.60;25.80;;;;;;;9.23;100.00;98979.78;2057806;28;20202;-74
2021/09/20 03:11:40;;;;;;;28.27;25.30;;;;;;;9.20;100.00;98961.69;2048766;29;20241;-75
2021/09/20 03:12:42;;;;;;;28.48;25.38;;;;;;;9.17;100.00;98970.28;2049196;28;20193;-74
2021/09/20 03:13:43;;;;;;;28.80;25.80;;;;;;;9.18;100.00;98974.50;2049074;29;20689;-74
2021/09/20 03:14:45;;;;;;;28.83;25.67;;;;;;;9.19;100.00;98962.78;2040806;29;20203;-74
2021/09/20 03:15:46;;;;;;;27.73;24.92;;;;;;;9.17;100.00;98962.28;2049522;28;20587;-75
2021/09/20 03:16:48;;;;;;;29.30;26.30;;;;;;;9.17;100.00;98967.59;2059361;28;20240;-75
2021/09/20 03:17:48;;;;;;;28.85;25.75;;;;;;;9.15;100.00;98967.09;2050623;29;20225;-74
2021/09/20 03:18:50;;;;;;;27.70;25.20;;;;;;;9.16;100.00;98974.81;2050726;29;20183;-74
2021/09/20 03:19:51;;;;;;;28.40;25.40;;;;;;;9.21;100.00;98973.91;2059278;28;20255;-74
2021/09/20 03:20:52;;;;;;;28.57;25.47;;;;;;;9.18;100.00;98971.84;2059161;28;20222;-74
2021/09/20 03:21:54;;;;;;;29.02;26.05;;;;;;;9.15;100.00;98969.78;2059211;28;20568;-75
2021/09/20 03:22:55;;;;;;;28.98;25.70;;;;;;;9.16;100.00;98971.34;2059254;28;20213;-75
2021/09/20 03:23:56;;;;;;;27.77;24.77;;;;;;;9.13;100.00;98966.63;2050120;29;20307;-74
2021/09/20 03:24:57;;;;;;;29.55;26.05;;;;;;;9.16;100.00;98966.03;2050663;28;20260;-75
2021/09/20 03:25:59;;;;;;;29.73;25.03;;;;;;;9.15;100.00;98969.78;2059224;28;20189;-75
2021/09/20 03:27:01;;;;;;;28.70;25.35;;;;;;;9.18;100.00;98971.84;2059182;28;20272;-75
2021/09/20 03:28:03;;;;;;;27.88;24.92;;;;;;;9.21;100.00;98976.59;2059355;28;20189;-75
2021/09/20 03:29:04;;;;;;;28.10;25.02;;;;;;;9.19;100.00;98973.44;2050488;29;20709;-75
2021/09/20 03:30:07;;;;;;;29.87;26.37;;;;;;;9.19;100.00;98971.56;2042561;29;20554;-75
2021/09/20 03:31:07;;;;;;;27.55;24.75;;;;;;;9.17;100.00;98975.59;2042792;29;20286;-74
2021/09/20 03:32:09;;;;;;;27.60;24.77;;;;;;;9.21;100.00;98980.06;2050660;29;20194;-75
2021/09/20 03:33:09;;;;;;;27.60;24.70;;;;;;;9.20;100.00;98975.00;2050480;29;20296;-75
2021/09/20 03:34:11;;;;;;;27.80;24.83;;;;;;;9.21;100.00;98973.91;2050501;29;20201;-75
2021/09/20 03:35:14;;;;;;;27.92;25.02;;;;;;;9.25;100.00;98969.63;2050490;29;20747;-75
2021/09/20 03:36:16;;;;;;;28.90;25.13;;;;;;;9.25;100.00;98969.63;2050854;28;20194;-75
2021/09/20 03:37:16;;;;;;;28.65;25.58;;;;;;;9.29;100.00;98976.72;2059108;28;20281;-75
2021/09/20 03:38:18;;;;;;;28.63;24.97;;;;;;;9.28;100.00;98966.38;2059314;28;20190;-75
2021/09/20 03:39:18;;;;;;;27.05;24.27;;;;;;;9.25;100.00;98967.75;2059104;28;20200;-74
2021/09/20 03:40:20;;;;;;;27.43;24.73;;;;;;;9.25;100.00;98967.75;2059188;28;20248;-74
2021/09/20 03:41:21;;;;;;;27.80;24.75;;;;;;;9.25;100.00;98972.28;2059070;28;20228;-75
2021/09/20 03:42:24;;;;;;;26.43;23.83;;;;;;;9.22;100.00;98965.66;2050106;29;20210;-75
2021/09/20 03:43:24;;;;;;;26.95;24.27;;;;;;;9.24;100.00;98963.50;2050661;28;20618;-75
2021/09/20 03:44:29;;;;;;;26.30;23.80;;;;;;;9.25;100.00;98961.63;2059066;28;20696;-75
2021/09/20 03:45:31;;;;;;;26.88;24.35;;;;;;;9.24;100.00;98965.38;2050117;29;20209;-74
2021/09/20 03:46:31;;;;;;;27.50;24.70;;;;;;;9.26;100.00;98963.22;2050507;28;20280;-74
2021/09/20 03:47:33;;;;;;;26.17;23.67;;;;;;;9.24;100.00;98965.38;2050429;29;20221;-74
2021/09/20 03:48:35;;;;;;;26.08;23.67;;;;;;;9.24;100.00;98970.69;2050698;28;20285;-75
2021/09/20 03:49:37;;;;;;;27.67;24.95;;;;;;;9.28;100.00;98966.38;2058983;28;20198;-75
2021/09/20 03:50:40;;;;;;;26.88;24.27;;;;;;;9.25;100.00;98966.94;2059186;28;20221;-75
2021/09/20 03:51:40;;;;;;;28.83;25.00;;;;;;;9.25;100.00;98961.63;2050057;29;20261;-75
2021/09/20 03:52:42;;;;;;;26.47;23.97;;;;;;;9.25;100.00;98964.28;2050372;29;20198;-74
2021/09/20 03:53:43;;;;;;;26.83;24.33;;;;;;;9.26;100.00;98965.88;2050535;28;20538;-74
2021/09/20 03:54:45;;;;;;;28.13;24.83;;;;;;;9.26;100.00;98968.53;2058953;28;20256;-74
2021/09/20 03:55:46;;;;;;;27.85;24.98;;;;;;;9.25;100.00;98965.09;2059087;28;20248;-74
2021/09/20 03:56:49;;;;;;;26.85;24.23;;;;;;;9.25;100.00;98972.28;2050255;29;20206;-74
2021/09/20 03:57:50;;;;;;;27.45;24.77;;;;;;;9.24;100.00;98965.38;2050381;29;20673;-74
2021/09/20 03:58:54;;;;;;;28.23;25.45;;;;;;;9.24;100.00;98973.34;2050149;28;20212;-75
2021/09/20 03:59:54;;;;;;;28.38;25.42;;;;;;;9.22;100.00;98971.00;2050361;29;20210;-75
2021/09/20 04:00:56;;;;;;;28.50;25.60;;;;;;;9.22;100.00;98978.19;2050530;29;20669;-74
2021/09/20 04:01:56;;;;;;;27.92;25.20;;;;;;;9.21;100.00;98961.44;2050233;29;20242;-74
2021/09/20 04:02:58;;;;;;;28.10;25.40;;;;;;;9.21;100.00;98977.41;2050382;29;20235;-75
2021/09/20 04:04:00;;;;;;;29.50;26.80;;;;;;;9.21;100.00;98976.59;2050286;29;20619;-74
2021/09/20 04:05:02;;;;;;;28.33;25.25;;;;;;;9.19;100.00;98978.75;2042181;29;20298;-74
2021/09/20 04:06:03;;;;;;;26.10;23.67;;;;;;;9.17;100.00;98978.25;2042331;29;20206;-74
2021/09/20 04:07:06;;;;;;;26.83;24.17;;;;;;;9.17;100.00;98976.38;2050356;29;20191;-74
2021/09/20 04:08:08;;;;;;;26.67;23.90;;;;;;;9.15;100.00;98977.75;2058960;28;20555;-75
2021/09/20 04:09:10;;;;;;;28.20;25.05;;;;;;;9.21;100.00;98982.72;2058812;28;20557;-75
2021/09/20 04:10:12;;;;;;;25.88;23.52;;;;;;;9.21;100.00;98981.91;2058904;28;20232;-74
2021/09/20 04:11:14;;;;;;;25.90;23.40;;;;;;;9.18;100.00;98983.28;2058929;28;20178;-75
2021/09/20 04:12:15;;;;;;;26.77;24.23;;;;;;;9.19;100.00;98984.06;2059050;28;20190;-75
2021/09/20 04:13:18;;;;;;;27.17;24.23;;;;;;;9.22;100.00;98981.63;2058855;28;20205;-75
2021/09/20 04:14:19;;;;;;;25.60;23.13;;;;;;;9.19;100.00;98990.19;2049885;29;20209;-75
2021/09/20 04:15:20;;;;;;;26.93;23.47;;;;;;;9.20;100.00;98977.66;2050213;29;20195;-75
2021/09/20 04:16:22;;;;;;;26.67;24.27;;;;;;;9.18;100.00;98977.97;2050289;28;20277;-74
2021/09/20 04:17:23;;;;;;;26.92;24.45;;;;;;;9.18;100.00;98983.28;2059034;28;20225;-74
2021/09/20 04:18:26;;;;;;;27.13;24.63;;;;;;;9.17;100.00;98981.69;2049783;29;20661;-75
2021/09/20 04:19:27;;;;;;;26.60;23.95;;;;;;;9.19;100.00;98979.53;2050481;28;20281;-74
2021/09/20 04:20:28;;;;;;;26.53;24.13;;;;;;;9.26;100.00;98981.84;2050117;29;20246;-75
2021/09/20 04:21:29;;;;;;;28.35;25.48;;;;;;;9.25;100.00;98982.94;2049753;29;20330;-74
2021/09/20 04:22:31;;;;;;;27.50;24.87;;;;;;;9.26;100.00;98979.97;2050442;29;20183;-75
2021/09/20 04:23:32;;;;;;;30.33;27.05;;;;;;;9.27;100.00;98983.41;2058889;28;20284;-75
2021/09/20 04:24:34;;;;;;;29.08;26.35;;;;;;;9.29;100.00;98989.25;2058951;28;20190;-74
2021/09/20 04:25:38;;;;;;;29.08;26.13;;;;;;;9.26;100.00;98976.53;2058569;28;20214;-74
2021/09/20 04:26:39;;;;;;;29.10;26.27;;;;;;;9.29;100.00;98986.56;2050096;29;20230;-74
2021/09/20 04:27:41;;;;;;;27.77;25.05;;;;;;;9.30;100.00;98980.19;2048705;28;20214;-74
2021/09/20 04:28:43;;;;;;;27.00;24.20;;;;;;;9.25;100.00;98983.72;2050468;28;20191;-75
2021/09/20 04:29:45;;;;;;;27.30;24.45;;;;;;;9.25;100.00;98988.25;2058772;28;20193;-75
2021/09/20 04:30:46;;;;;;;27.65;25.10;;;;;;;9.25;100.00;98982.94;2050074;29;20293;-75
2021/09/20 04:31:47;;;;;;;27.77;25.17;;;;;;;9.27;100.00;98992.19;2050240;28;20230;-74
2021/09/20 04:32:48;;;;;;;28.30;25.40;;;;;;;9.25;100.00;98988.25;2050049;29;20569;-75
2021/09/20 04:33:50;;;;;;;26.57;23.97;;;;;;;9.23;100.00;98987.75;2042171;29;20218;-74
2021/09/20 04:34:50;;;;;;;29.92;25.52;;;;;;;9.21;100.00;98987.22;2050175;28;20654;-75
2021/09/20 04:35:52;;;;;;;27.77;25.13;;;;;;;9.22;100.00;98986.97;2058722;28;20182;-75
2021/09/20 04:36:57;;;;;;;29.10;26.27;;;;;;;9.22;100.00;98978.97;2058629;28;20430;-75
2021/09/20 04:37:59;;;;;;;26.90;24.40;;;;;;;9.21;100.00;98981.91;2049638;29;20202;-75
2021/09/20 04:38:59;;;;;;;28.90;25.83;;;;;;;9.19;100.00;98984.84;2050137;28;20206;-74
2021/09/20 04:40:01;;;;;;;27.27;24.77;;;;;;;9.22;100.00;98991.50;2058854;28;20185;-75
2021/09/20 04:41:02;;;;;;;29.80;25.45;;;;;;;9.18;100.00;98980.63;2058553;28;20193;-74
2021/09/20 04:42:03;;;;;;;27.20;24.50;;;;;;;9.18;100.00;98993.13;2058651;28;20198;-74
2021/09/20 04:43:07;;;;;;;28.13;25.33;;;;;;;9.18;100.00;98993.13;2049732;29;20230;-74